sensor_id;sensor_type;location;lat;lon;timestamp;P1;durP1;ratioP1;P2;durP2;ratioP2
57846;SDS011;43675;50.030;21.952;2022-12-18T00:01:19;143.02;;;67.60;;
57846;SDS011;43675;50.030;21.952;2022-12-18T00:03:47;135.63;;;67.00;;
57846;SDS011;43675;50.030;21.952;2022-12-18T00:06:14;129.68;;;63.15;;
57846;SDS011;43675;50.030;21.952;2022-12-18T00:08:43;134.47;;;69.17;;
57846;SDS011;43675;50.030;21.952;2022-12-18T00:11:13;134.95;;;72.42;;
57846;SDS011;43675;50.030;21.952;2022-12-18T00:13:41;135.82;;;72.30;;
57846;SDS011;43675;50.030;21.952;2022-12-18T00:16:09;128.57;;;69.67;;
57846;SDS011;43675;50.030;21.952;2022-12-18T00:18:36;134.65;;;63.23;;
57846;SDS011;43675;50.030;21.952;2022-12-18T00:21:04;133.43;;;64.82;;
57846;SDS011;43675;50.030;21.952;2022-12-18T00:23:31;124.30;;;64.25;;
57846;SDS011;43675;50.030;21.952;2022-12-18T00:26:01;136.22;;;67.17;;
57846;SDS011;43675;50.030;21.952;2022-12-18T00:28:28;129.57;;;64.80;;
57846;SDS011;43675;50.030;21.952;2022-12-18T00:31:04;132.63;;;62.38;;
57846;SDS011;43675;50.030;21.952;2022-12-18T00:33:31;127.27;;;62.17;;
57846;SDS011;43675;50.030;21.952;2022-12-18T00:36:05;130.43;;;62.20;;
57846;SDS011;43675;50.030;21.952;2022-12-18T00:38:29;130.22;;;64.27;;
57846;SDS011;43675;50.030;21.952;2022-12-18T00:40:54;138.20;;;64.05;;
57846;SDS011;43675;50.030;21.952;2022-12-18T00:43:20;123.95;;;61.68;;
57846;SDS011;43675;50.030;21.952;2022-12-18T00:45:46;129.57;;;63.15;;
57846;SDS011;43675;50.030;21.952;2022-12-18T00:48:12;120.02;;;60.28;;
57846;SDS011;43675;50.030;21.952;2022-12-18T00:50:37;125.02;;;59.27;;
57846;SDS011;43675;50.030;21.952;2022-12-18T00:53:03;105.07;;;57.73;;
57846;SDS011;43675;50.030;21.952;2022-12-18T00:55:29;115.17;;;58.63;;
57846;SDS011;43675;50.030;21.952;2022-12-18T00:57:55;115.92;;;61.63;;
57846;SDS011;43675;50.030;21.952;2022-12-18T01:00:20;112.85;;;62.05;;
57846;SDS011;43675;50.030;21.952;2022-12-18T01:02:47;114.17;;;62.23;;
57846;SDS011;43675;50.030;21.952;2022-12-18T01:05:13;112.70;;;62.35;;
57846;SDS011;43675;50.030;21.952;2022-12-18T01:07:40;113.75;;;61.60;;
57846;SDS011;43675;50.030;21.952;2022-12-18T01:10:06;106.72;;;59.33;;
57846;SDS011;43675;50.030;21.952;2022-12-18T01:12:33;106.10;;;55.33;;
57846;SDS011;43675;50.030;21.952;2022-12-18T01:14:59;101.67;;;56.63;;
57846;SDS011;43675;50.030;21.952;2022-12-18T01:17:24;98.33;;;58.85;;
57846;SDS011;43675;50.030;21.952;2022-12-18T01:19:50;86.05;;;54.70;;
57846;SDS011;43675;50.030;21.952;2022-12-18T01:22:16;87.80;;;53.17;;
57846;SDS011;43675;50.030;21.952;2022-12-18T01:24:41;82.60;;;51.98;;
57846;SDS011;43675;50.030;21.952;2022-12-18T01:27:07;77.37;;;50.52;;
57846;SDS011;43675;50.030;21.952;2022-12-18T01:29:33;88.52;;;55.92;;
57846;SDS011;43675;50.030;21.952;2022-12-18T01:31:58;85.10;;;54.65;;
57846;SDS011;43675;50.030;21.952;2022-12-18T01:34:24;82.10;;;52.73;;
57846;SDS011;43675;50.030;21.952;2022-12-18T01:36:50;87.40;;;55.50;;
57846;SDS011;43675;50.030;21.952;2022-12-18T01:39:16;86.00;;;55.08;;
57846;SDS011;43675;50.030;21.952;2022-12-18T01:41:41;89.10;;;53.10;;
57846;SDS011;43675;50.030;21.952;2022-12-18T01:44:46;91.60;;;55.63;;
57846;SDS011;43675;50.030;21.952;2022-12-18T01:46:53;94.03;;;52.08;;
57846;SDS011;43675;50.030;21.952;2022-12-18T01:49:19;90.62;;;49.65;;
57846;SDS011;43675;50.030;21.952;2022-12-18T01:51:45;85.65;;;50.50;;
57846;SDS011;43675;50.030;21.952;2022-12-18T01:54:11;96.82;;;50.58;;
57846;SDS011;43675;50.030;21.952;2022-12-18T01:56:37;96.70;;;52.33;;
57846;SDS011;43675;50.030;21.952;2022-12-18T01:59:03;93.72;;;50.17;;
57846;SDS011;43675;50.030;21.952;2022-12-18T02:01:32;97.27;;;51.23;;
57846;SDS011;43675;50.030;21.952;2022-12-18T02:06:47;102.75;;;54.15;;
57846;SDS011;43675;50.030;21.952;2022-12-18T02:09:18;113.00;;;58.50;;
57846;SDS011;43675;50.030;21.952;2022-12-18T02:14:38;108.17;;;56.20;;
57846;SDS011;43675;50.030;21.952;2022-12-18T02:17:19;112.68;;;57.08;;
57846;SDS011;43675;50.030;21.952;2022-12-18T02:22:41;94.60;;;54.38;;
57846;SDS011;43675;50.030;21.952;2022-12-18T02:25:21;95.28;;;53.58;;
57846;SDS011;43675;50.030;21.952;2022-12-18T02:27:50;99.58;;;54.08;;
57846;SDS011;43675;50.030;21.952;2022-12-18T02:30:17;91.85;;;52.50;;
57846;SDS011;43675;50.030;21.952;2022-12-18T02:32:49;92.15;;;52.95;;
57846;SDS011;43675;50.030;21.952;2022-12-18T02:35:19;86.87;;;53.08;;
57846;SDS011;43675;50.030;21.952;2022-12-18T02:37:46;86.97;;;53.05;;
57846;SDS011;43675;50.030;21.952;2022-12-18T02:40:13;81.37;;;51.50;;
57846;SDS011;43675;50.030;21.952;2022-12-18T02:42:41;85.77;;;54.00;;
57846;SDS011;43675;50.030;21.952;2022-12-18T02:45:07;80.75;;;52.17;;
57846;SDS011;43675;50.030;21.952;2022-12-18T02:47:38;83.87;;;54.50;;
57846;SDS011;43675;50.030;21.952;2022-12-18T02:55:30;77.95;;;52.17;;
57846;SDS011;43675;50.030;21.952;2022-12-18T03:00:55;80.83;;;50.78;;
57846;SDS011;43675;50.030;21.952;2022-12-18T03:03:29;78.20;;;51.70;;
57846;SDS011;43675;50.030;21.952;2022-12-18T03:08:35;80.55;;;52.75;;
57846;SDS011;43675;50.030;21.952;2022-12-18T03:11:03;75.12;;;51.13;;
57846;SDS011;43675;50.030;21.952;2022-12-18T03:13:40;75.25;;;51.60;;
57846;SDS011;43675;50.030;21.952;2022-12-18T03:16:05;79.85;;;52.05;;
57846;SDS011;43675;50.030;21.952;2022-12-18T03:18:35;77.00;;;51.45;;
57846;SDS011;43675;50.030;21.952;2022-12-18T03:21:04;72.80;;;51.83;;
57846;SDS011;43675;50.030;21.952;2022-12-18T03:23:34;70.22;;;49.42;;
57846;SDS011;43675;50.030;21.952;2022-12-18T03:26:06;75.90;;;49.67;;
57846;SDS011;43675;50.030;21.952;2022-12-18T03:28:33;72.03;;;49.80;;
57846;SDS011;43675;50.030;21.952;2022-12-18T03:31:02;68.17;;;50.95;;
57846;SDS011;43675;50.030;21.952;2022-12-18T03:36:18;72.58;;;49.60;;
57846;SDS011;43675;50.030;21.952;2022-12-18T03:38:44;61.83;;;46.20;;
57846;SDS011;43675;50.030;21.952;2022-12-18T03:41:15;62.10;;;45.67;;
57846;SDS011;43675;50.030;21.952;2022-12-18T03:51:46;65.40;;;48.23;;
57846;SDS011;43675;50.030;21.952;2022-12-18T03:54:15;69.85;;;51.18;;
57846;SDS011;43675;50.030;21.952;2022-12-18T03:56:44;70.87;;;49.75;;
57846;SDS011;43675;50.030;21.952;2022-12-18T03:59:12;71.00;;;48.83;;
57846;SDS011;43675;50.030;21.952;2022-12-18T04:01:42;65.80;;;52.25;;
57846;SDS011;43675;50.030;21.952;2022-12-18T04:04:10;62.48;;;51.37;;
57846;SDS011;43675;50.030;21.952;2022-12-18T04:06:39;58.60;;;48.42;;
57846;SDS011;43675;50.030;21.952;2022-12-18T04:09:07;59.05;;;47.67;;
57846;SDS011;43675;50.030;21.952;2022-12-18T04:11:33;60.63;;;49.00;;
57846;SDS011;43675;50.030;21.952;2022-12-18T04:13:59;55.85;;;46.73;;
57846;SDS011;43675;50.030;21.952;2022-12-18T04:16:28;63.75;;;49.20;;
57846;SDS011;43675;50.030;21.952;2022-12-18T04:18:53;62.30;;;49.27;;
57846;SDS011;43675;50.030;21.952;2022-12-18T04:21:19;62.90;;;49.25;;
57846;SDS011;43675;50.030;21.952;2022-12-18T04:23:45;63.50;;;51.63;;
57846;SDS011;43675;50.030;21.952;2022-12-18T04:26:11;60.70;;;49.23;;
57846;SDS011;43675;50.030;21.952;2022-12-18T04:28:37;60.33;;;49.77;;
57846;SDS011;43675;50.030;21.952;2022-12-18T04:31:03;58.38;;;48.52;;
57846;SDS011;43675;50.030;21.952;2022-12-18T04:33:29;60.67;;;49.03;;
57846;SDS011;43675;50.030;21.952;2022-12-18T04:35:55;59.90;;;50.03;;
57846;SDS011;43675;50.030;21.952;2022-12-18T04:38:21;59.77;;;49.83;;
57846;SDS011;43675;50.030;21.952;2022-12-18T04:40:46;60.08;;;49.77;;
57846;SDS011;43675;50.030;21.952;2022-12-18T04:43:12;61.45;;;49.58;;
57846;SDS011;43675;50.030;21.952;2022-12-18T04:45:38;62.20;;;50.90;;
57846;SDS011;43675;50.030;21.952;2022-12-18T04:48:04;63.52;;;51.10;;
57846;SDS011;43675;50.030;21.952;2022-12-18T04:50:30;60.00;;;49.10;;
57846;SDS011;43675;50.030;21.952;2022-12-18T04:52:56;59.60;;;48.23;;
57846;SDS011;43675;50.030;21.952;2022-12-18T04:55:22;58.50;;;46.50;;
57846;SDS011;43675;50.030;21.952;2022-12-18T04:57:50;59.60;;;45.63;;
57846;SDS011;43675;50.030;21.952;2022-12-18T05:00:15;59.65;;;46.88;;
57846;SDS011;43675;50.030;21.952;2022-12-18T05:02:41;60.48;;;50.20;;
57846;SDS011;43675;50.030;21.952;2022-12-18T05:05:07;57.58;;;48.92;;
57846;SDS011;43675;50.030;21.952;2022-12-18T05:07:33;59.90;;;47.90;;
57846;SDS011;43675;50.030;21.952;2022-12-18T05:09:59;61.50;;;49.98;;
57846;SDS011;43675;50.030;21.952;2022-12-18T05:12:25;62.85;;;49.00;;
57846;SDS011;43675;50.030;21.952;2022-12-18T05:14:51;61.13;;;49.42;;
57846;SDS011;43675;50.030;21.952;2022-12-18T05:17:17;59.15;;;50.52;;
57846;SDS011;43675;50.030;21.952;2022-12-18T05:19:43;60.40;;;50.40;;
57846;SDS011;43675;50.030;21.952;2022-12-18T05:22:08;60.00;;;50.08;;
57846;SDS011;43675;50.030;21.952;2022-12-18T05:24:35;64.55;;;52.03;;
57846;SDS011;43675;50.030;21.952;2022-12-18T05:27:01;62.78;;;50.35;;
57846;SDS011;43675;50.030;21.952;2022-12-18T05:29:26;58.23;;;48.60;;
57846;SDS011;43675;50.030;21.952;2022-12-18T05:31:52;61.10;;;49.27;;
57846;SDS011;43675;50.030;21.952;2022-12-18T05:34:18;60.98;;;49.55;;
57846;SDS011;43675;50.030;21.952;2022-12-18T05:36:44;58.80;;;48.38;;
57846;SDS011;43675;50.030;21.952;2022-12-18T05:39:09;58.30;;;47.70;;
57846;SDS011;43675;50.030;21.952;2022-12-18T05:41:35;56.25;;;48.87;;
57846;SDS011;43675;50.030;21.952;2022-12-18T05:44:01;61.08;;;49.70;;
57846;SDS011;43675;50.030;21.952;2022-12-18T05:46:27;57.75;;;48.92;;
57846;SDS011;43675;50.030;21.952;2022-12-18T05:48:52;57.27;;;47.73;;
57846;SDS011;43675;50.030;21.952;2022-12-18T05:51:19;56.08;;;49.95;;
57846;SDS011;43675;50.030;21.952;2022-12-18T05:53:46;60.28;;;51.23;;
57846;SDS011;43675;50.030;21.952;2022-12-18T05:56:14;57.15;;;50.80;;
57846;SDS011;43675;50.030;21.952;2022-12-18T05:58:42;58.28;;;51.35;;
57846;SDS011;43675;50.030;21.952;2022-12-18T06:01:09;59.18;;;49.88;;
57846;SDS011;43675;50.030;21.952;2022-12-18T06:03:37;54.08;;;48.17;;
57846;SDS011;43675;50.030;21.952;2022-12-18T06:06:03;56.48;;;49.15;;
57846;SDS011;43675;50.030;21.952;2022-12-18T06:08:29;54.40;;;48.33;;
57846;SDS011;43675;50.030;21.952;2022-12-18T06:10:55;59.08;;;47.50;;
57846;SDS011;43675;50.030;21.952;2022-12-18T06:13:21;56.45;;;49.60;;
57846;SDS011;43675;50.030;21.952;2022-12-18T06:15:48;56.42;;;48.20;;
57846;SDS011;43675;50.030;21.952;2022-12-18T06:18:13;57.75;;;49.18;;
57846;SDS011;43675;50.030;21.952;2022-12-18T06:20:39;57.85;;;50.03;;
57846;SDS011;43675;50.030;21.952;2022-12-18T06:23:05;57.15;;;50.92;;
57846;SDS011;43675;50.030;21.952;2022-12-18T06:25:31;58.35;;;48.30;;
57846;SDS011;43675;50.030;21.952;2022-12-18T06:27:57;60.45;;;49.20;;
57846;SDS011;43675;50.030;21.952;2022-12-18T06:30:23;58.10;;;50.00;;
57846;SDS011;43675;50.030;21.952;2022-12-18T06:32:49;56.83;;;48.92;;
57846;SDS011;43675;50.030;21.952;2022-12-18T06:35:15;53.42;;;47.25;;
57846;SDS011;43675;50.030;21.952;2022-12-18T06:37:41;54.95;;;48.92;;
57846;SDS011;43675;50.030;21.952;2022-12-18T06:40:06;58.42;;;49.48;;
57846;SDS011;43675;50.030;21.952;2022-12-18T06:42:33;58.70;;;49.23;;
57846;SDS011;43675;50.030;21.952;2022-12-18T06:44:59;57.95;;;51.13;;
57846;SDS011;43675;50.030;21.952;2022-12-18T06:47:25;58.78;;;51.08;;
57846;SDS011;43675;50.030;21.952;2022-12-18T06:49:50;57.10;;;51.05;;
57846;SDS011;43675;50.030;21.952;2022-12-18T06:52:16;59.48;;;50.00;;
57846;SDS011;43675;50.030;21.952;2022-12-18T06:54:42;58.60;;;48.35;;
57846;SDS011;43675;50.030;21.952;2022-12-18T06:57:07;58.65;;;48.25;;
57846;SDS011;43675;50.030;21.952;2022-12-18T06:59:33;59.23;;;49.60;;
57846;SDS011;43675;50.030;21.952;2022-12-18T07:01:59;57.05;;;42.55;;
57846;SDS011;43675;50.030;21.952;2022-12-18T07:04:28;54.70;;;42.70;;
57846;SDS011;43675;50.030;21.952;2022-12-18T07:06:54;59.85;;;49.48;;
57846;SDS011;43675;50.030;21.952;2022-12-18T07:09:20;59.03;;;49.25;;
57846;SDS011;43675;50.030;21.952;2022-12-18T07:11:46;61.42;;;49.08;;
57846;SDS011;43675;50.030;21.952;2022-12-18T07:14:12;56.95;;;49.63;;
57846;SDS011;43675;50.030;21.952;2022-12-18T07:16:37;60.20;;;49.40;;
57846;SDS011;43675;50.030;21.952;2022-12-18T07:19:03;58.52;;;49.60;;
57846;SDS011;43675;50.030;21.952;2022-12-18T07:21:29;61.53;;;49.23;;
57846;SDS011;43675;50.030;21.952;2022-12-18T07:23:55;63.33;;;51.37;;
57846;SDS011;43675;50.030;21.952;2022-12-18T07:26:21;64.87;;;49.65;;
57846;SDS011;43675;50.030;21.952;2022-12-18T07:28:47;62.10;;;52.17;;
57846;SDS011;43675;50.030;21.952;2022-12-18T07:31:14;64.05;;;51.77;;
57846;SDS011;43675;50.030;21.952;2022-12-18T07:33:42;56.77;;;44.08;;
57846;SDS011;43675;50.030;21.952;2022-12-18T07:36:09;53.65;;;43.30;;
57846;SDS011;43675;50.030;21.952;2022-12-18T07:38:35;54.93;;;43.95;;
57846;SDS011;43675;50.030;21.952;2022-12-18T07:41:07;57.65;;;45.50;;
57846;SDS011;43675;50.030;21.952;2022-12-18T07:43:30;58.23;;;45.23;;
57846;SDS011;43675;50.030;21.952;2022-12-18T07:45:56;57.53;;;44.38;;
57846;SDS011;43675;50.030;21.952;2022-12-18T07:48:22;58.28;;;44.23;;
57846;SDS011;43675;50.030;21.952;2022-12-18T07:50:48;61.60;;;43.78;;
57846;SDS011;43675;50.030;21.952;2022-12-18T07:53:14;58.48;;;43.13;;
57846;SDS011;43675;50.030;21.952;2022-12-18T07:55:40;59.70;;;44.38;;
57846;SDS011;43675;50.030;21.952;2022-12-18T07:58:06;64.60;;;43.70;;
57846;SDS011;43675;50.030;21.952;2022-12-18T08:00:32;60.83;;;41.95;;
57846;SDS011;43675;50.030;21.952;2022-12-18T08:02:59;59.93;;;41.58;;
57846;SDS011;43675;50.030;21.952;2022-12-18T08:05:25;57.53;;;41.58;;
57846;SDS011;43675;50.030;21.952;2022-12-18T08:07:51;57.10;;;40.85;;
57846;SDS011;43675;50.030;21.952;2022-12-18T08:10:17;58.17;;;44.67;;
57846;SDS011;43675;50.030;21.952;2022-12-18T08:12:43;58.40;;;45.63;;
57846;SDS011;43675;50.030;21.952;2022-12-18T08:15:09;59.30;;;47.60;;
57846;SDS011;43675;50.030;21.952;2022-12-18T08:17:35;58.85;;;47.90;;
57846;SDS011;43675;50.030;21.952;2022-12-18T08:20:01;53.15;;;40.88;;
57846;SDS011;43675;50.030;21.952;2022-12-18T08:22:27;55.48;;;39.23;;
57846;SDS011;43675;50.030;21.952;2022-12-18T08:24:52;59.80;;;44.90;;
57846;SDS011;43675;50.030;21.952;2022-12-18T08:27:18;57.75;;;44.60;;
57846;SDS011;43675;50.030;21.952;2022-12-18T08:29:44;57.70;;;40.95;;
57846;SDS011;43675;50.030;21.952;2022-12-18T08:32:09;56.60;;;41.95;;
57846;SDS011;43675;50.030;21.952;2022-12-18T08:34:35;56.73;;;42.62;;
57846;SDS011;43675;50.030;21.952;2022-12-18T08:37:01;58.70;;;41.63;;
57846;SDS011;43675;50.030;21.952;2022-12-18T08:39:27;62.23;;;43.38;;
57846;SDS011;43675;50.030;21.952;2022-12-18T08:41:53;60.12;;;41.73;;
57846;SDS011;43675;50.030;21.952;2022-12-18T08:44:18;57.88;;;45.85;;
57846;SDS011;43675;50.030;21.952;2022-12-18T08:46:44;63.00;;;45.78;;
57846;SDS011;43675;50.030;21.952;2022-12-18T08:49:10;60.03;;;43.63;;
57846;SDS011;43675;50.030;21.952;2022-12-18T08:51:37;63.45;;;44.13;;
57846;SDS011;43675;50.030;21.952;2022-12-18T08:54:03;60.23;;;43.45;;
57846;SDS011;43675;50.030;21.952;2022-12-18T08:56:30;62.50;;;45.52;;
57846;SDS011;43675;50.030;21.952;2022-12-18T08:58:55;61.60;;;44.48;;
57846;SDS011;43675;50.030;21.952;2022-12-18T09:01:21;63.25;;;45.88;;
57846;SDS011;43675;50.030;21.952;2022-12-18T09:03:48;64.80;;;45.35;;
57846;SDS011;43675;50.030;21.952;2022-12-18T09:06:16;65.62;;;47.13;;
57846;SDS011;43675;50.030;21.952;2022-12-18T09:08:44;62.73;;;45.10;;
57846;SDS011;43675;50.030;21.952;2022-12-18T09:11:23;66.92;;;46.48;;
57846;SDS011;43675;50.030;21.952;2022-12-18T09:13:51;67.53;;;46.42;;
57846;SDS011;43675;50.030;21.952;2022-12-18T09:16:18;73.42;;;46.65;;
57846;SDS011;43675;50.030;21.952;2022-12-18T09:18:44;67.35;;;48.05;;
57846;SDS011;43675;50.030;21.952;2022-12-18T09:21:10;65.00;;;42.95;;
57846;SDS011;43675;50.030;21.952;2022-12-18T09:23:38;65.05;;;44.90;;
57846;SDS011;43675;50.030;21.952;2022-12-18T09:26:04;61.95;;;41.33;;
57846;SDS011;43675;50.030;21.952;2022-12-18T09:28:30;65.37;;;42.78;;
57846;SDS011;43675;50.030;21.952;2022-12-18T09:30:56;62.55;;;42.62;;
57846;SDS011;43675;50.030;21.952;2022-12-18T09:33:21;57.23;;;40.23;;
57846;SDS011;43675;50.030;21.952;2022-12-18T09:35:47;56.28;;;38.98;;
57846;SDS011;43675;50.030;21.952;2022-12-18T09:38:14;61.02;;;40.28;;
57846;SDS011;43675;50.030;21.952;2022-12-18T09:40:42;59.95;;;42.45;;
57846;SDS011;43675;50.030;21.952;2022-12-18T09:43:17;62.62;;;44.27;;
57846;SDS011;43675;50.030;21.952;2022-12-18T09:45:50;63.28;;;42.88;;
57846;SDS011;43675;50.030;21.952;2022-12-18T09:48:22;64.40;;;42.48;;
57846;SDS011;43675;50.030;21.952;2022-12-18T09:50:54;65.90;;;42.73;;
57846;SDS011;43675;50.030;21.952;2022-12-18T09:53:23;53.42;;;40.73;;
57846;SDS011;43675;50.030;21.952;2022-12-18T09:55:51;52.08;;;38.95;;
57846;SDS011;43675;50.030;21.952;2022-12-18T09:58:35;52.40;;;38.67;;
57846;SDS011;43675;50.030;21.952;2022-12-18T10:01:06;61.85;;;39.48;;
57846;SDS011;43675;50.030;21.952;2022-12-18T10:03:37;55.52;;;44.60;;
57846;SDS011;43675;50.030;21.952;2022-12-18T10:11:35;59.85;;;42.00;;
57846;SDS011;43675;50.030;21.952;2022-12-18T10:14:05;57.95;;;41.88;;
57846;SDS011;43675;50.030;21.952;2022-12-18T10:25:04;56.15;;;42.33;;
57846;SDS011;43675;50.030;21.952;2022-12-18T10:27:34;58.70;;;42.98;;
57846;SDS011;43675;50.030;21.952;2022-12-18T10:30:00;61.02;;;44.13;;
57846;SDS011;43675;50.030;21.952;2022-12-18T10:32:29;56.37;;;42.88;;
57846;SDS011;43675;50.030;21.952;2022-12-18T10:34:56;58.45;;;42.27;;
57846;SDS011;43675;50.030;21.952;2022-12-18T10:37:25;56.28;;;41.35;;
57846;SDS011;43675;50.030;21.952;2022-12-18T10:40:06;53.98;;;40.98;;
57846;SDS011;43675;50.030;21.952;2022-12-18T10:42:38;55.85;;;41.58;;
57846;SDS011;43675;50.030;21.952;2022-12-18T10:45:13;58.68;;;43.33;;
57846;SDS011;43675;50.030;21.952;2022-12-18T10:47:37;56.65;;;43.60;;
57846;SDS011;43675;50.030;21.952;2022-12-18T10:50:16;55.98;;;42.70;;
57846;SDS011;43675;50.030;21.952;2022-12-18T10:52:52;57.95;;;42.05;;
57846;SDS011;43675;50.030;21.952;2022-12-18T10:55:22;57.62;;;43.73;;
57846;SDS011;43675;50.030;21.952;2022-12-18T10:57:49;59.65;;;42.95;;
57846;SDS011;43675;50.030;21.952;2022-12-18T11:00:26;57.30;;;42.00;;
57846;SDS011;43675;50.030;21.952;2022-12-18T11:02:54;55.05;;;42.83;;
57846;SDS011;43675;50.030;21.952;2022-12-18T11:07:53;52.53;;;41.53;;
57846;SDS011;43675;50.030;21.952;2022-12-18T11:10:25;50.88;;;39.83;;
57846;SDS011;43675;50.030;21.952;2022-12-18T11:12:48;48.25;;;38.85;;
57846;SDS011;43675;50.030;21.952;2022-12-18T11:15:21;52.45;;;39.95;;
57846;SDS011;43675;50.030;21.952;2022-12-18T11:17:55;50.00;;;38.98;;
57846;SDS011;43675;50.030;21.952;2022-12-18T11:20:55;50.33;;;41.13;;
57846;SDS011;43675;50.030;21.952;2022-12-18T11:23:11;51.88;;;41.53;;
57846;SDS011;43675;50.030;21.952;2022-12-18T11:25:31;52.23;;;40.08;;
57846;SDS011;43675;50.030;21.952;2022-12-18T11:28:05;51.30;;;39.55;;
57846;SDS011;43675;50.030;21.952;2022-12-18T11:30:36;51.60;;;40.12;;
57846;SDS011;43675;50.030;21.952;2022-12-18T11:35:53;54.60;;;39.80;;
57846;SDS011;43675;50.030;21.952;2022-12-18T11:41:02;48.20;;;40.92;;
57846;SDS011;43675;50.030;21.952;2022-12-18T11:43:31;49.48;;;40.70;;
57846;SDS011;43675;50.030;21.952;2022-12-18T11:46:00;50.78;;;41.30;;
57846;SDS011;43675;50.030;21.952;2022-12-18T11:48:37;47.38;;;39.70;;
57846;SDS011;43675;50.030;21.952;2022-12-18T11:51:09;50.12;;;40.63;;
57846;SDS011;43675;50.030;21.952;2022-12-18T11:53:35;45.50;;;39.35;;
57846;SDS011;43675;50.030;21.952;2022-12-18T11:58:55;51.25;;;40.88;;
57846;SDS011;43675;50.030;21.952;2022-12-18T12:12:30;49.90;;;38.88;;
57846;SDS011;43675;50.030;21.952;2022-12-18T12:31:55;43.13;;;36.20;;
57846;SDS011;43675;50.030;21.952;2022-12-18T12:37:32;49.88;;;40.67;;
57846;SDS011;43675;50.030;21.952;2022-12-18T12:39:56;43.38;;;36.88;;
57846;SDS011;43675;50.030;21.952;2022-12-18T12:42:27;44.38;;;37.90;;
57846;SDS011;43675;50.030;21.952;2022-12-18T12:44:54;48.38;;;37.55;;
57846;SDS011;43675;50.030;21.952;2022-12-18T12:47:29;47.55;;;38.60;;
57846;SDS011;43675;50.030;21.952;2022-12-18T12:50:01;46.83;;;38.02;;
57846;SDS011;43675;50.030;21.952;2022-12-18T12:52:39;46.90;;;37.67;;
57846;SDS011;43675;50.030;21.952;2022-12-18T12:55:13;48.15;;;38.65;;
57846;SDS011;43675;50.030;21.952;2022-12-18T12:57:37;53.92;;;38.80;;
57846;SDS011;43675;50.030;21.952;2022-12-18T13:00:10;48.87;;;39.90;;
57846;SDS011;43675;50.030;21.952;2022-12-18T13:08:11;52.20;;;37.70;;
57846;SDS011;43675;50.030;21.952;2022-12-18T13:10:40;49.27;;;37.70;;
57846;SDS011;43675;50.030;21.952;2022-12-18T13:15:43;55.40;;;39.88;;
57846;SDS011;43675;50.030;21.952;2022-12-18T13:18:12;57.03;;;40.98;;
57846;SDS011;43675;50.030;21.952;2022-12-18T13:23:39;57.05;;;41.20;;
57846;SDS011;43675;50.030;21.952;2022-12-18T13:31:53;54.88;;;42.98;;
57846;SDS011;43675;50.030;21.952;2022-12-18T13:41:41;61.25;;;45.23;;
57846;SDS011;43675;50.030;21.952;2022-12-18T13:44:31;62.45;;;47.25;;
57846;SDS011;43675;50.030;21.952;2022-12-18T13:47:24;59.85;;;48.65;;
57846;SDS011;43675;50.030;21.952;2022-12-18T13:49:53;61.00;;;50.33;;
57846;SDS011;43675;50.030;21.952;2022-12-18T13:52:22;60.73;;;48.08;;
57846;SDS011;43675;50.030;21.952;2022-12-18T13:54:57;61.53;;;47.45;;
57846;SDS011;43675;50.030;21.952;2022-12-18T13:57:33;70.92;;;51.70;;
57846;SDS011;43675;50.030;21.952;2022-12-18T14:00:23;74.60;;;53.42;;
57846;SDS011;43675;50.030;21.952;2022-12-18T14:02:55;77.05;;;57.73;;
57846;SDS011;43675;50.030;21.952;2022-12-18T14:05:29;76.97;;;56.88;;
57846;SDS011;43675;50.030;21.952;2022-12-18T14:08:01;72.08;;;53.50;;
57846;SDS011;43675;50.030;21.952;2022-12-18T14:10:30;52.62;;;45.90;;
57846;SDS011;43675;50.030;21.952;2022-12-18T14:12:56;51.98;;;46.08;;
57846;SDS011;43675;50.030;21.952;2022-12-18T14:18:02;49.48;;;39.85;;
57846;SDS011;43675;50.030;21.952;2022-12-18T14:20:31;49.25;;;42.73;;
57846;SDS011;43675;50.030;21.952;2022-12-18T14:22:56;48.00;;;40.17;;
57846;SDS011;43675;50.030;21.952;2022-12-18T14:25:23;50.23;;;40.58;;
57846;SDS011;43675;50.030;21.952;2022-12-18T14:27:52;49.83;;;41.75;;
57846;SDS011;43675;50.030;21.952;2022-12-18T14:35:38;52.98;;;41.10;;
57846;SDS011;43675;50.030;21.952;2022-12-18T14:38:15;51.85;;;39.95;;
57846;SDS011;43675;50.030;21.952;2022-12-18T14:40:44;54.95;;;42.08;;
57846;SDS011;43675;50.030;21.952;2022-12-18T14:43:12;49.10;;;38.28;;
57846;SDS011;43675;50.030;21.952;2022-12-18T14:45:39;48.87;;;38.42;;
57846;SDS011;43675;50.030;21.952;2022-12-18T14:48:08;51.28;;;39.03;;
57846;SDS011;43675;50.030;21.952;2022-12-18T14:50:38;58.55;;;44.63;;
57846;SDS011;43675;50.030;21.952;2022-12-18T14:53:05;57.23;;;45.55;;
57846;SDS011;43675;50.030;21.952;2022-12-18T14:55:30;59.80;;;47.17;;
57846;SDS011;43675;50.030;21.952;2022-12-18T14:57:56;60.75;;;48.00;;
57846;SDS011;43675;50.030;21.952;2022-12-18T15:00:23;56.10;;;43.50;;
57846;SDS011;43675;50.030;21.952;2022-12-18T15:02:52;55.40;;;43.80;;
57846;SDS011;43675;50.030;21.952;2022-12-18T15:05:21;49.55;;;41.58;;
57846;SDS011;43675;50.030;21.952;2022-12-18T15:07:50;49.30;;;39.40;;
57846;SDS011;43675;50.030;21.952;2022-12-18T15:10:19;53.98;;;43.05;;
57846;SDS011;43675;50.030;21.952;2022-12-18T15:12:49;52.70;;;42.90;;
57846;SDS011;43675;50.030;21.952;2022-12-18T15:26:11;54.03;;;41.63;;
57846;SDS011;43675;50.030;21.952;2022-12-18T15:28:48;55.33;;;42.05;;
57846;SDS011;43675;50.030;21.952;2022-12-18T15:36:22;57.95;;;42.80;;
57846;SDS011;43675;50.030;21.952;2022-12-18T15:38:49;48.92;;;39.90;;
57846;SDS011;43675;50.030;21.952;2022-12-18T15:41:16;58.40;;;43.80;;
57846;SDS011;43675;50.030;21.952;2022-12-18T15:43:44;66.75;;;46.88;;
57846;SDS011;43675;50.030;21.952;2022-12-18T15:46:16;58.38;;;42.10;;
57846;SDS011;43675;50.030;21.952;2022-12-18T15:48:47;52.48;;;43.55;;
57846;SDS011;43675;50.030;21.952;2022-12-18T15:51:19;62.83;;;45.90;;
57846;SDS011;43675;50.030;21.952;2022-12-18T15:53:43;58.28;;;44.60;;
57846;SDS011;43675;50.030;21.952;2022-12-18T15:56:10;56.00;;;42.65;;
57846;SDS011;43675;50.030;21.952;2022-12-18T15:58:37;54.77;;;41.05;;
57846;SDS011;43675;50.030;21.952;2022-12-18T16:01:03;57.65;;;44.60;;
57846;SDS011;43675;50.030;21.952;2022-12-18T16:03:29;56.35;;;43.48;;
57846;SDS011;43675;50.030;21.952;2022-12-18T16:05:54;56.75;;;43.78;;
57846;SDS011;43675;50.030;21.952;2022-12-18T16:08:20;57.67;;;43.83;;
57846;SDS011;43675;50.030;21.952;2022-12-18T16:10:46;58.35;;;42.85;;
57846;SDS011;43675;50.030;21.952;2022-12-18T16:13:12;59.23;;;44.05;;
57846;SDS011;43675;50.030;21.952;2022-12-18T16:15:41;58.00;;;43.40;;
57846;SDS011;43675;50.030;21.952;2022-12-18T16:18:07;68.78;;;45.17;;
57846;SDS011;43675;50.030;21.952;2022-12-18T16:20:33;64.55;;;46.53;;
57846;SDS011;43675;50.030;21.952;2022-12-18T16:22:59;65.10;;;47.67;;
57846;SDS011;43675;50.030;21.952;2022-12-18T16:25:29;66.37;;;45.20;;
57846;SDS011;43675;50.030;21.952;2022-12-18T16:27:54;66.82;;;45.65;;